Time;durP1;ratioP1;P1;durP2;ratioP2;P2;SDS_P1;SDS_P2;PMS_P1;PMS_P2;Temp;Humidity;BMP_temperature;BMP_pressure;BME280_temperature;BME280_humidity;BME280_pressure;Samples;Min_cycle;Max_cycle;Signal;HPM_P1;HPM_P2
2022/12/20 00:01:29;;;;;;;127.20;79.90;;;3.70;99.90;;;;;;5049954;28;20288;-51
2022/12/20 00:04:02;;;;;;;78.83;51.37;;;3.80;99.90;;;;;;5049126;28;20214;-51
2022/12/20 00:06:30;;;;;;;70.83;53.63;;;3.80;99.90;;;;;;5049455;28;20220;-51
2022/12/20 00:09:00;;;;;;;65.90;47.60;;;3.80;99.90;;;;;;5048855;28;20649;-51
2022/12/20 00:11:29;;;;;;;69.00;54.30;;;3.80;99.90;;;;;;5049586;28;20233;-51
2022/12/20 00:13:58;;;;;;;69.03;48.20;;;3.80;99.90;;;;;;5049352;28;20213;-51
2022/12/20 00:16:27;;;;;;;120.03;71.60;;;3.90;99.90;;;;;;5049417;28;20975;-51
2022/12/20 00:18:57;;;;;;;75.70;52.27;;;3.90;99.90;;;;;;5049528;28;20671;-51
2022/12/20 00:21:28;;;;;;;77.60;57.20;;;3.90;99.90;;;;;;5049092;28;20229;-51
2022/12/20 00:23:57;;;;;;;246.87;82.23;;;3.90;99.90;;;;;;5049181;28;20883;-52
2022/12/20 00:26:30;;;;;;;641.00;159.10;;;3.90;99.90;;;;;;5049219;28;20239;-52
2022/12/20 00:28:59;;;;;;;83.37;57.10;;;3.90;99.90;;;;;;5049721;28;20205;-52
2022/12/20 00:31:29;;;;;;;91.07;69.50;;;3.90;99.90;;;;;;5049118;28;20221;-50
2022/12/20 00:33:59;;;;;;;94.43;72.33;;;3.90;99.90;;;;;;5048197;28;20200;-52
2022/12/20 00:36:31;;;;;;;80.00;57.20;;;3.90;99.90;;;;;;5048753;28;20263;-51
2022/12/20 00:39:00;;;;;;;156.80;73.33;;;3.90;99.90;;;;;;5048697;28;20254;-51
2022/12/20 00:41:30;;;;;;;68.20;52.93;;;3.80;99.90;;;;;;5048689;28;20315;-51
2022/12/20 00:43:59;;;;;;;90.13;69.43;;;3.80;99.90;;;;;;5038264;28;20604;-52
2022/12/20 00:46:27;;;;;;;62.93;48.13;;;3.80;99.90;;;;;;5048921;28;20217;-51
2022/12/20 00:48:56;;;;;;;198.33;78.20;;;3.90;99.90;;;;;;5049402;28;20208;-51
2022/12/20 00:51:27;;;;;;;72.30;54.27;;;3.90;99.90;;;;;;5035749;28;20222;-51
2022/12/20 00:53:57;;;;;;;86.80;71.93;;;3.90;99.90;;;;;;5048931;28;20205;-52
2022/12/20 00:56:25;;;;;;;70.57;50.90;;;3.80;99.90;;;;;;5049409;28;20210;-51
2022/12/20 00:58:54;;;;;;;90.97;58.80;;;3.80;99.90;;;;;;5049073;28;20208;-51
2022/12/20 01:01:25;;;;;;;74.90;64.10;;;3.80;99.90;;;;;;5047096;28;20311;-52
2022/12/20 01:03:53;;;;;;;113.47;72.10;;;3.80;99.90;;;;;;5047546;28;20607;-51
2022/12/20 01:06:23;;;;;;;86.77;60.80;;;3.70;99.90;;;;;;5048703;28;20216;-51
2022/12/20 01:08:52;;;;;;;129.10;85.80;;;3.70;99.90;;;;;;5048539;28;20219;-51
2022/12/20 01:11:24;;;;;;;83.30;60.93;;;3.70;99.90;;;;;;5049176;28;20274;-52
2022/12/20 01:13:55;;;;;;;82.70;65.07;;;3.70;99.90;;;;;;5048133;28;20660;-51
2022/12/20 01:16:26;;;;;;;83.53;59.50;;;3.70;99.90;;;;;;5035084;28;20211;-52
2022/12/20 01:18:55;;;;;;;77.17;52.00;;;3.70;99.90;;;;;;5048730;28;20744;-52
2022/12/20 01:21:25;;;;;;;71.97;53.30;;;3.70;99.90;;;;;;5034833;28;20291;-52
2022/12/20 01:23:54;;;;;;;77.17;59.70;;;3.70;99.90;;;;;;5048219;28;20312;-52
2022/12/20 01:26:27;;;;;;;91.23;67.67;;;3.70;99.90;;;;;;5048996;28;20271;-52
2022/12/20 01:28:57;;;;;;;64.77;48.57;;;3.70;99.90;;;;;;5049237;28;20205;-52
2022/12/20 01:31:26;;;;;;;67.87;51.30;;;3.60;99.90;;;;;;5048796;28;20254;-52
2022/12/20 01:33:54;;;;;;;89.67;61.87;;;3.60;99.90;;;;;;5048281;28;20215;-52
2022/12/20 01:36:25;;;;;;;76.37;54.20;;;3.60;99.90;;;;;;5048360;28;20705;-52
2022/12/20 01:38:57;;;;;;;96.30;71.23;;;3.60;99.90;;;;;;5048627;28;20279;-52
2022/12/20 01:41:28;;;;;;;70.10;61.13;;;3.60;99.90;;;;;;5048538;28;20653;-52
2022/12/20 01:43:58;;;;;;;100.07;71.63;;;3.60;99.90;;;;;;5046673;28;20231;-52
2022/12/20 01:46:27;;;;;;;93.23;64.70;;;3.60;99.90;;;;;;5048128;28;20259;-52
2022/12/20 01:49:01;;;;;;;80.80;69.07;;;3.70;99.90;;;;;;5047907;28;20211;-52
2022/12/20 01:51:34;;;;;;;70.40;54.83;;;3.70;99.90;;;;;;5048534;28;20237;-52
2022/12/20 01:54:07;;;;;;;64.87;50.80;;;3.70;99.90;;;;;;5048305;28;20203;-52
2022/12/20 01:56:39;;;;;;;75.20;54.43;;;3.70;99.90;;;;;;5047930;28;20250;-52
2022/12/20 01:59:08;;;;;;;81.23;62.60;;;3.70;99.90;;;;;;5048158;28;20206;-52
2022/12/20 02:01:36;;;;;;;67.13;47.50;;;3.70;99.90;;;;;;5047765;28;20255;-52
2022/12/20 02:04:04;;;;;;;74.37;54.80;;;3.80;99.90;;;;;;5047241;28;20764;-52
2022/12/20 02:06:32;;;;;;;91.80;74.17;;;3.80;99.90;;;;;;5048681;28;20233;-52
2022/12/20 02:09:02;;;;;;;96.57;74.97;;;3.80;99.90;;;;;;5048165;28;20210;-52
2022/12/20 02:12:00;;;;;;;79.63;55.87;;;3.80;99.90;;;;;;5048328;28;20227;-52
2022/12/20 02:14:41;;;;;;;337.40;110.00;;;3.70;99.90;;;;;;5048262;28;20244;-52
2022/12/20 02:17:18;;;;;;;1660.53;365.43;;;3.80;99.90;;;;;;5047955;28;20686;-52
2022/12/20 02:20:15;;;;;;;101.67;56.43;;;3.80;99.90;;;;;;5050786;28;20757;-52
2022/12/20 02:23:00;;;;;;;62.97;53.03;;;3.90;99.90;;;;;;5044098;28;20598;-52
2022/12/20 02:25:54;;;;;;;72.83;57.07;;;3.90;99.90;;;;;;5051857;28;20235;-52
2022/12/20 02:28:55;;;;;;;74.03;62.37;;;3.90;99.90;;;;;;5038877;28;20259;-52
2022/12/20 02:31:29;;;;;;;74.53;56.47;;;3.90;99.90;;;;;;5051198;28;20312;-52
2022/12/20 02:33:58;;;;;;;87.03;64.97;;;3.90;99.90;;;;;;5051418;28;20262;-51
2022/12/20 02:36:26;;;;;;;72.47;49.13;;;3.90;99.90;;;;;;5050554;28;20202;-51
2022/12/20 02:38:55;;;;;;;61.50;44.93;;;4.00;99.90;;;;;;5050680;28;20209;-52
2022/12/20 02:41:27;;;;;;;73.43;54.67;;;4.00;99.90;;;;;;5051302;28;20276;-52
2022/12/20 02:46:50;;;;;;;82.03;52.83;;;3.90;99.90;;;;;;5051430;28;20240;-52
2022/12/20 02:49:23;;;;;;;81.70;62.83;;;3.90;99.90;;;;;;5051761;28;20210;-52
2022/12/20 02:51:54;;;;;;;74.93;58.17;;;3.80;99.90;;;;;;5045335;28;20738;-52
2022/12/20 02:54:23;;;;;;;72.40;60.03;;;3.80;99.90;;;;;;5051609;28;20251;-52
2022/12/20 02:56:57;;;;;;;83.10;60.13;;;3.80;99.90;;;;;;5040528;28;20305;-52
2022/12/20 02:59:31;;;;;;;83.97;59.47;;;3.90;99.90;;;;;;5050643;28;20235;-52
2022/12/20 03:02:01;;;;;;;65.10;51.93;;;3.90;99.90;;;;;;5051032;28;20283;-51
2022/12/20 03:04:35;;;;;;;80.90;61.73;;;3.90;99.90;;;;;;5051263;28;20213;-51
2022/12/20 03:07:05;;;;;;;64.03;44.70;;;3.80;99.90;;;;;;5050556;28;20646;-52
2022/12/20 03:09:36;;;;;;;78.70;61.43;;;3.80;99.90;;;;;;5051018;28;20733;-52
2022/12/20 03:12:07;;;;;;;110.87;74.47;;;3.80;99.90;;;;;;5050888;28;20226;-52
2022/12/20 03:14:35;;;;;;;69.73;52.43;;;3.80;99.90;;;;;;5051157;28;20623;-53
2022/12/20 03:17:05;;;;;;;85.77;61.73;;;3.80;99.90;;;;;;5041121;28;20315;-51
2022/12/20 03:19:34;;;;;;;71.77;55.17;;;3.70;99.90;;;;;;5049070;28;20214;-52
2022/12/20 03:22:02;;;;;;;75.23;55.07;;;3.70;99.90;;;;;;5050497;28;20646;-52
2022/12/20 03:24:31;;;;;;;71.27;46.93;;;3.70;99.90;;;;;;5050624;28;21796;-52
2022/12/20 03:26:59;;;;;;;70.87;44.00;;;3.70;99.90;;;;;;5050722;28;20699;-52
2022/12/20 03:29:27;;;;;;;58.63;46.73;;;3.70;99.90;;;;;;5050649;28;20503;-52
2022/12/20 03:31:56;;;;;;;72.57;52.43;;;3.70;99.90;;;;;;5050340;28;20230;-52
2022/12/20 03:34:25;;;;;;;64.37;48.83;;;3.60;99.90;;;;;;5050688;28;20223;-51
2022/12/20 03:36:53;;;;;;;112.57;79.13;;;3.60;99.90;;;;;;5049270;28;20241;-52
2022/12/20 03:39:21;;;;;;;82.30;60.93;;;3.60;99.90;;;;;;5043606;28;20649;-51
2022/12/20 03:41:49;;;;;;;70.03;54.03;;;3.60;99.90;;;;;;5049625;28;20263;-52
2022/12/20 03:44:17;;;;;;;66.80;54.10;;;3.50;99.90;;;;;;5050366;28;20270;-51
2022/12/20 03:46:46;;;;;;;62.83;47.47;;;3.60;99.90;;;;;;5049050;28;20583;-51
2022/12/20 03:49:14;;;;;;;65.63;51.33;;;3.60;99.90;;;;;;5050321;28;20239;-52
2022/12/20 03:51:43;;;;;;;70.47;55.97;;;3.60;99.90;;;;;;5047093;28;20234;-52
2022/12/20 03:54:12;;;;;;;87.13;66.10;;;3.50;99.90;;;;;;5050007;28;20282;-52
2022/12/20 03:56:40;;;;;;;74.90;57.07;;;3.50;99.90;;;;;;5050022;28;20243;-52
2022/12/20 03:59:08;;;;;;;57.13;49.43;;;3.50;99.90;;;;;;5050122;28;20285;-51
2022/12/20 04:01:37;;;;;;;63.90;49.63;;;3.50;99.90;;;;;;5049639;28;20727;-52
2022/12/20 04:04:14;;;;;;;77.90;55.23;;;3.40;99.90;;;;;;5049426;28;20214;-52
2022/12/20 04:06:43;;;;;;;60.57;50.93;;;3.40;99.90;;;;;;5048633;28;20840;-52
2022/12/20 04:09:11;;;;;;;87.30;68.37;;;3.40;99.90;;;;;;5049365;28;20252;-52
2022/12/20 04:11:40;;;;;;;81.97;62.47;;;3.40;99.90;;;;;;5049164;28;20257;-52
2022/12/20 04:14:08;;;;;;;130.57;82.73;;;3.40;99.90;;;;;;5048838;28;20251;-52
2022/12/20 04:16:36;;;;;;;97.07;81.80;;;3.40;99.90;;;;;;5049718;28;20295;-52
2022/12/20 04:19:04;;;;;;;96.23;74.93;;;3.40;99.90;;;;;;5049291;28;20619;-52
2022/12/20 04:21:34;;;;;;;68.23;51.93;;;3.30;99.90;;;;;;5049483;28;20526;-52
2022/12/20 04:24:05;;;;;;;64.30;45.30;;;3.30;99.90;;;;;;5049119;28;20208;-51
2022/12/20 04:26:33;;;;;;;86.03;71.23;;;3.30;99.90;;;;;;5049379;28;20250;-51
2022/12/20 04:29:01;;;;;;;99.23;78.13;;;3.30;99.90;;;;;;5049688;28;20571;-52
2022/12/20 04:31:29;;;;;;;85.60;64.47;;;3.30;99.90;;;;;;5049296;28;20283;-52
2022/12/20 04:33:58;;;;;;;81.07;72.37;;;3.30;99.90;;;;;;5048919;28;20212;-51
2022/12/20 04:36:26;;;;;;;68.50;52.13;;;3.30;99.90;;;;;;5049286;28;20288;-53
2022/12/20 04:38:54;;;;;;;79.90;59.93;;;3.40;99.90;;;;;;5049594;28;20233;-53
2022/12/20 04:41:25;;;;;;;82.27;60.53;;;3.40;99.90;;;;;;5049054;28;20308;-52
2022/12/20 04:43:55;;;;;;;75.23;56.83;;;3.40;99.90;;;;;;5045854;28;20203;-52
2022/12/20 04:46:25;;;;;;;72.30;54.13;;;3.50;99.90;;;;;;5044525;28;20218;-52
2022/12/20 04:48:53;;;;;;;108.00;85.87;;;3.50;99.90;;;;;;5048735;28;20213;-52
2022/12/20 04:51:26;;;;;;;83.87;66.73;;;3.50;99.90;;;;;;5049237;28;20242;-52
2022/12/20 04:53:53;;;;;;;76.03;59.67;;;3.50;99.90;;;;;;5048733;28;20204;-51
2022/12/20 04:56:24;;;;;;;98.27;69.83;;;3.50;99.90;;;;;;5049183;28;20286;-52
2022/12/20 04:58:54;;;;;;;69.90;55.53;;;3.50;99.90;;;;;;5048711;28;20286;-51
2022/12/20 05:01:22;;;;;;;83.53;61.63;;;3.40;99.90;;;;;;5048979;28;20279;-51
2022/12/20 05:03:51;;;;;;;71.10;53.67;;;3.50;99.90;;;;;;5048484;28;20206;-52
2022/12/20 05:06:19;;;;;;;94.87;76.77;;;3.50;99.90;;;;;;5048197;28;20286;-51
2022/12/20 05:08:48;;;;;;;89.33;68.83;;;3.50;99.90;;;;;;5048768;28;20214;-51
2022/12/20 05:11:16;;;;;;;77.73;55.40;;;3.50;99.90;;;;;;5048881;28;20206;-52
2022/12/20 05:13:46;;;;;;;67.73;52.27;;;3.60;99.90;;;;;;5048283;28;20209;-51
2022/12/20 05:16:14;;;;;;;136.27;79.20;;;3.60;99.90;;;;;;5049033;28;20289;-51
2022/12/20 05:18:42;;;;;;;136.53;83.60;;;3.70;99.90;;;;;;5048908;28;20210;-52
2022/12/20 05:26:44;;;;;;;98.30;58.60;;;3.70;99.90;;;;;;5036188;28;20316;-51
2022/12/20 05:29:15;;;;;;;84.73;59.03;;;3.70;99.90;;;;;;5048768;28;20300;-51
2022/12/20 05:31:43;;;;;;;72.37;56.70;;;3.70;99.90;;;;;;5034573;28;20231;-52
2022/12/20 05:34:12;;;;;;;97.00;66.30;;;3.80;99.90;;;;;;5048644;28;20633;-50
2022/12/20 05:36:40;;;;;;;83.53;56.57;;;3.80;99.90;;;;;;5047810;28;20658;-51
2022/12/20 05:39:08;;;;;;;84.10;59.77;;;3.80;99.90;;;;;;5048533;28;20244;-51
2022/12/20 05:41:36;;;;;;;93.60;71.57;;;3.80;99.90;;;;;;5048537;28;20269;-52
2022/12/20 05:44:04;;;;;;;122.03;57.83;;;3.80;99.90;;;;;;5048296;28;20213;-52
2022/12/20 05:46:34;;;;;;;74.23;58.03;;;3.80;99.90;;;;;;5047208;28;20219;-52
2022/12/20 05:49:02;;;;;;;142.53;75.37;;;3.80;99.90;;;;;;5048358;28;20560;-51
2022/12/20 05:51:31;;;;;;;1303.53;275.50;;;3.90;99.90;;;;;;5048286;28;20316;-52
2022/12/20 05:53:59;;;;;;;111.20;81.07;;;3.90;99.90;;;;;;5048875;28;20817;-51
2022/12/20 05:56:27;;;;;;;66.33;48.50;;;3.90;99.90;;;;;;5052533;28;20208;-51
2022/12/20 05:58:56;;;;;;;99.03;79.33;;;3.90;99.90;;;;;;5052357;28;20240;-51
2022/12/20 06:01:24;;;;;;;72.83;53.27;;;4.00;99.90;;;;;;5052066;28;20308;-52
2022/12/20 06:03:54;;;;;;;349.63;130.10;;;4.00;99.90;;;;;;5051725;28;20602;-51
2022/12/20 06:06:22;;;;;;;102.27;74.73;;;4.00;99.90;;;;;;5051995;28;20279;-51
2022/12/20 06:08:50;;;;;;;89.10;73.73;;;4.00;99.90;;;;;;5051955;28;20213;-51
2022/12/20 06:11:18;;;;;;;59.77;44.27;;;4.00;99.90;;;;;;5037481;28;20214;-52
2022/12/20 06:13:52;;;;;;;67.97;55.43;;;4.00;99.90;;;;;;5051550;28;20206;-52
2022/12/20 06:16:22;;;;;;;66.53;50.50;;;4.00;99.90;;;;;;5051906;28;20267;-51
2022/12/20 06:18:50;;;;;;;108.37;79.83;;;4.00;99.90;;;;;;5052375;28;20219;-51
2022/12/20 06:21:20;;;;;;;69.67;59.83;;;4.00;99.90;;;;;;5051473;28;20246;-51
2022/12/20 06:23:48;;;;;;;85.97;67.53;;;3.90;99.90;;;;;;5050535;28;20667;-52
2022/12/20 06:26:17;;;;;;;78.20;58.90;;;3.90;99.90;;;;;;5051422;28;20278;-51
2022/12/20 06:28:51;;;;;;;68.33;51.80;;;3.90;99.90;;;;;;5052131;28;20326;-51
2022/12/20 06:31:19;;;;;;;86.10;62.93;;;4.00;99.90;;;;;;5051398;28;20210;-52
2022/12/20 06:33:47;;;;;;;69.30;53.03;;;3.90;99.90;;;;;;5051625;28;20210;-51
2022/12/20 06:36:15;;;;;;;58.33;46.27;;;4.00;99.90;;;;;;5039508;28;20209;-51
2022/12/20 06:38:45;;;;;;;72.20;55.00;;;4.00;99.90;;;;;;5038654;28;20223;-52
2022/12/20 06:41:13;;;;;;;88.27;64.10;;;4.10;99.90;;;;;;5050662;28;20313;-51
2022/12/20 06:43:41;;;;;;;63.33;44.17;;;4.10;99.90;;;;;;5050953;28;20205;-52
2022/12/20 06:46:10;;;;;;;63.50;47.53;;;4.10;99.90;;;;;;5051219;28;20604;-52
2022/12/20 06:48:38;;;;;;;77.53;60.53;;;4.10;99.90;;;;;;5051730;28;20217;-52
2022/12/20 06:51:06;;;;;;;62.13;53.13;;;4.10;99.90;;;;;;5050219;28;20204;-51
2022/12/20 06:53:35;;;;;;;68.80;52.13;;;4.10;99.90;;;;;;5050994;28;20201;-52
2022/12/20 06:56:05;;;;;;;80.53;63.97;;;4.10;99.90;;;;;;5051549;28;20237;-52
2022/12/20 06:58:33;;;;;;;73.33;59.17;;;4.10;99.90;;;;;;5051605;28;20200;-52
2022/12/20 07:01:01;;;;;;;235.87;87.23;;;4.20;99.90;;;;;;5051125;28;20701;-52
2022/12/20 07:03:29;;;;;;;55.30;44.27;;;4.20;99.90;;;;;;5050957;28;20449;-52
2022/12/20 07:05:58;;;;;;;73.13;51.67;;;4.20;99.90;;;;;;5049644;28;20225;-52
2022/12/20 07:08:26;;;;;;;91.43;72.37;;;4.20;99.90;;;;;;5050911;28;20336;-52
2022/12/20 07:10:55;;;;;;;77.23;49.80;;;4.20;99.90;;;;;;5050829;28;20206;-51
2022/12/20 07:13:24;;;;;;;70.83;59.43;;;4.20;99.90;;;;;;5050474;28;20313;-52
2022/12/20 07:15:59;;;;;;;62.03;49.53;;;4.20;99.90;;;;;;5050810;28;20263;-51
2022/12/20 07:18:27;;;;;;;63.87;46.20;;;4.30;99.90;;;;;;5050704;28;20209;-52
2022/12/20 07:20:59;;;;;;;70.73;55.87;;;4.30;99.90;;;;;;5050959;28;20213;-52
2022/12/20 07:23:27;;;;;;;76.93;54.13;;;4.30;99.90;;;;;;5050556;28;20281;-52
2022/12/20 07:25:56;;;;;;;68.07;60.83;;;4.30;99.90;;;;;;5049918;28;20211;-52
2022/12/20 07:28:26;;;;;;;56.43;45.33;;;4.40;99.90;;;;;;5040495;28;20227;-52
2022/12/20 07:30:55;;;;;;;65.53;55.67;;;4.40;99.90;;;;;;5050731;28;20215;-52
2022/12/20 07:33:23;;;;;;;78.93;62.40;;;4.40;99.90;;;;;;5050350;28;20319;-52
2022/12/20 07:35:52;;;;;;;61.80;42.63;;;4.40;99.90;;;;;;5050016;28;20210;-53
2022/12/20 07:38:21;;;;;;;71.10;50.83;;;4.40;99.90;;;;;;5050662;28;20595;-52
2022/12/20 07:40:50;;;;;;;85.57;61.07;;;4.40;99.90;;;;;;5050980;28;20209;-52
2022/12/20 07:43:18;;;;;;;51.97;41.47;;;4.50;99.90;;;;;;5047331;28;20240;-53
2022/12/20 07:45:47;;;;;;;67.00;44.33;;;4.50;99.90;;;;;;5038676;28;20233;-52
2022/12/20 07:48:15;;;;;;;54.53;39.07;;;4.50;99.90;;;;;;5042335;28;20230;-52
2022/12/20 07:50:51;;;;;;;82.70;56.70;;;4.50;99.90;;;;;;5050296;28;20209;-52
2022/12/20 07:53:20;;;;;;;64.90;51.83;;;4.50;99.90;;;;;;5048083;28;20297;-53
2022/12/20 07:55:49;;;;;;;69.40;56.87;;;4.50;99.90;;;;;;5042295;28;20644;-52
2022/12/20 07:58:19;;;;;;;103.73;59.67;;;4.50;99.90;;;;;;5049967;28;20236;-52
2022/12/20 08:00:49;;;;;;;100.20;63.67;;;4.50;99.90;;;;;;5050143;28;20213;-52
2022/12/20 08:03:20;;;;;;;67.33;49.50;;;4.50;99.90;;;;;;5049137;28;20294;-53
2022/12/20 08:05:54;;;;;;;72.97;53.43;;;4.50;99.90;;;;;;5050044;28;20284;-51
2022/12/20 08:08:22;;;;;;;53.57;45.60;;;4.40;99.90;;;;;;5049083;28;20359;-52
2022/12/20 08:10:51;;;;;;;56.47;47.70;;;4.40;99.90;;;;;;5046410;28;20206;-51
2022/12/20 08:13:19;;;;;;;71.30;56.03;;;4.50;99.90;;;;;;5049371;28;20228;-52
2022/12/20 08:15:49;;;;;;;69.43;54.27;;;4.50;99.90;;;;;;5048434;28;20294;-51
2022/12/20 08:18:17;;;;;;;74.47;54.00;;;4.50;99.90;;;;;;5042329;28;20205;-51
2022/12/20 08:20:45;;;;;;;59.57;36.43;;;4.60;99.90;;;;;;5049601;28;20262;-51
2022/12/20 08:23:13;;;;;;;79.23;53.17;;;4.60;99.90;;;;;;5049069;28;20712;-52
2022/12/20 08:25:41;;;;;;;53.27;47.53;;;4.60;99.90;;;;;;5047699;28;20753;-51
2022/12/20 08:28:09;;;;;;;55.43;45.73;;;4.70;99.90;;;;;;5049226;28;20654;-52
2022/12/20 08:30:38;;;;;;;49.63;36.77;;;4.70;99.90;;;;;;5046757;28;20604;-52
2022/12/20 08:33:07;;;;;;;54.53;44.40;;;4.70;99.90;;;;;;5038241;28;20226;-51
2022/12/20 08:35:36;;;;;;;55.03;47.73;;;4.80;99.90;;;;;;5037831;28;20214;-51
2022/12/20 08:38:04;;;;;;;55.23;48.37;;;4.80;99.90;;;;;;5047844;28;20674;-51
2022/12/20 08:40:32;;;;;;;84.80;44.27;;;4.80;99.90;;;;;;5049315;28;20300;-51
2022/12/20 08:43:00;;;;;;;55.30;46.20;;;4.80;99.90;;;;;;5048475;28;20668;-51
2022/12/20 08:45:36;;;;;;;52.20;45.60;;;4.80;99.90;;;;;;5037950;28;20215;-51
2022/12/20 08:48:05;;;;;;;69.50;49.17;;;4.80;99.90;;;;;;5043680;28;20229;-52
2022/12/20 08:50:35;;;;;;;53.63;39.07;;;4.90;99.90;;;;;;5035995;28;20625;-52
2022/12/20 08:53:03;;;;;;;117.27;51.07;;;4.90;99.90;;;;;;5048741;28;20236;-51
2022/12/20 08:55:31;;;;;;;138.37;70.37;;;4.90;99.90;;;;;;5048226;28;20219;-51
2022/12/20 08:57:59;;;;;;;60.57;48.00;;;5.00;99.90;;;;;;5049339;28;20213;-51
2022/12/20 09:00:27;;;;;;;57.33;40.27;;;5.00;99.90;;;;;;5048522;28;20669;-51
2022/12/20 09:02:55;;;;;;;53.13;45.90;;;5.00;99.90;;;;;;5048254;28;20777;-51
2022/12/20 09:05:24;;;;;;;105.67;60.37;;;5.00;99.90;;;;;;5048730;28;20202;-51
2022/12/20 09:07:54;;;;;;;56.90;48.43;;;5.00;99.90;;;;;;5048859;28;20685;-52
2022/12/20 09:10:22;;;;;;;119.87;66.23;;;5.10;99.90;;;;;;5048893;28;20562;-51
2022/12/20 09:12:50;;;;;;;65.63;53.20;;;5.10;99.90;;;;;;5048322;28;20221;-52
2022/12/20 09:15:18;;;;;;;61.40;42.87;;;5.10;99.90;;;;;;5049117;28;20242;-51
2022/12/20 09:17:47;;;;;;;56.50;44.37;;;5.10;99.90;;;;;;5049138;28;20284;-51
2022/12/20 09:20:15;;;;;;;75.40;51.13;;;5.10;99.90;;;;;;5039725;28;20260;-51
2022/12/20 09:22:43;;;;;;;92.77;57.77;;;5.10;99.90;;;;;;5044300;28;20263;-51
2022/12/20 09:25:13;;;;;;;47.80;40.23;;;5.10;99.90;;;;;;5048770;28;20207;-51
2022/12/20 09:27:41;;;;;;;58.77;42.87;;;5.10;99.90;;;;;;5049710;28;20251;-51
2022/12/20 09:30:09;;;;;;;59.20;43.20;;;5.20;99.90;;;;;;5052798;28;20662;-51
2022/12/20 09:32:37;;;;;;;55.73;47.90;;;5.30;99.90;;;;;;5052528;28;20252;-51
2022/12/20 09:35:06;;;;;;;52.80;35.60;;;5.30;99.90;;;;;;5039051;28;20672;-51
2022/12/20 09:37:35;;;;;;;106.10;55.37;;;5.30;99.90;;;;;;5051898;28;20222;-51
2022/12/20 09:40:03;;;;;;;56.63;46.03;;;5.40;99.90;;;;;;5052374;28;20232;-51
2022/12/20 09:42:32;;;;;;;58.03;46.27;;;5.40;99.90;;;;;;5052255;28;20308;-53
2022/12/20 09:45:06;;;;;;;57.33;46.67;;;5.40;99.90;;;;;;5052235;28;20205;-51
2022/12/20 09:47:36;;;;;;;57.87;42.17;;;5.40;99.90;;;;;;5052903;28;20224;-52
2022/12/20 09:50:06;;;;;;;55.73;46.27;;;5.50;99.90;;;;;;5051552;28;20319;-51
2022/12/20 09:52:59;;;;;;;66.70;51.00;;;5.50;99.90;;;;;;5050448;28;20269;-52
2022/12/20 09:55:35;;;;;;;90.60;51.07;;;5.50;99.90;;;;;;5052345;28;20261;-52
2022/12/20 09:58:23;;;;;;;56.67;48.53;;;5.50;99.90;;;;;;5052601;28;20206;-53
2022/12/20 10:00:51;;;;;;;50.23;39.73;;;5.60;99.90;;;;;;5052454;28;20282;-53
2022/12/20 10:03:23;;;;;;;150.87;67.07;;;5.60;99.90;;;;;;5051594;28;20275;-52
2022/12/20 10:05:54;;;;;;;158.23;57.70;;;5.60;99.90;;;;;;5052402;28;20285;-52
2022/12/20 10:08:42;;;;;;;64.07;43.87;;;5.70;99.90;;;;;;5052062;28;20235;-52
2022/12/20 10:11:22;;;;;;;230.03;92.33;;;5.70;99.90;;;;;;5051308;28;20668;-52
2022/12/20 10:14:04;;;;;;;52.10;38.57;;;5.80;99.90;;;;;;5051549;28;20833;-52
2022/12/20 10:16:39;;;;;;;59.17;47.33;;;5.80;99.90;;;;;;5052292;28;20553;-52
2022/12/20 10:19:30;;;;;;;108.23;60.57;;;5.90;99.90;;;;;;5050944;28;20201;-52
2022/12/20 10:22:07;;;;;;;40.23;35.17;;;6.00;99.90;;;;;;5051238;28;20249;-53
2022/12/20 10:24:36;;;;;;;132.17;66.73;;;6.00;99.90;;;;;;5051859;28;20287;-53
2022/12/20 10:27:12;;;;;;;59.13;48.37;;;6.10;99.90;;;;;;5051877;28;20214;-52
2022/12/20 10:29:42;;;;;;;147.57;60.20;;;6.10;99.90;;;;;;5051755;28;20214;-53
2022/12/20 10:32:14;;;;;;;46.70;33.63;;;6.10;99.90;;;;;;5051261;28;20229;-52
2022/12/20 10:34:50;;;;;;;101.93;55.77;;;6.10;99.90;;;;;;5051910;28;20216;-52
2022/12/20 10:37:19;;;;;;;52.60;46.23;;;6.10;99.90;;;;;;5051479;28;20256;-52
2022/12/20 10:39:49;;;;;;;69.63;49.00;;;6.10;99.90;;;;;;5050751;28;20923;-52
2022/12/20 10:42:37;;;;;;;228.97;95.43;;;6.20;99.90;;;;;;5051152;28;20728;-52
2022/12/20 10:45:28;;;;;;;183.07;90.70;;;6.20;99.90;;;;;;5049620;28;20672;-52
2022/12/20 10:48:06;;;;;;;370.60;133.07;;;6.20;99.90;;;;;;5051609;28;20210;-53
2022/12/20 10:50:34;;;;;;;61.27;52.17;;;6.20;99.90;;;;;;5051777;28;20262;-50
2022/12/20 10:53:16;;;;;;;134.23;60.47;;;6.20;99.90;;;;;;5050663;28;20270;-50
2022/12/20 10:55:45;;;;;;;209.30;53.63;;;6.30;99.90;;;;;;5039419;28;20287;-51
2022/12/20 10:58:15;;;;;;;163.27;76.00;;;6.30;99.90;;;;;;5051502;28;20267;-53
2022/12/20 11:00:45;;;;;;;109.10;64.67;;;6.50;99.90;;;;;;5046903;28;20230;-53
2022/12/20 11:03:17;;;;;;;52.80;42.90;;;6.50;99.90;;;;;;5050678;28;21012;-52
2022/12/20 11:05:56;;;;;;;121.63;53.70;;;6.50;99.90;;;;;;5038236;28;20299;-52
2022/12/20 11:08:26;;;;;;;105.47;57.57;;;6.50;99.90;;;;;;5050744;28;20239;-52
2022/12/20 11:11:17;;;;;;;228.77;68.90;;;6.50;99.90;;;;;;5051129;28;20208;-52
2022/12/20 11:13:46;;;;;;;84.53;52.33;;;6.50;99.90;;;;;;5050769;28;20209;-54
2022/12/20 11:16:30;;;;;;;147.90;72.23;;;6.50;99.90;;;;;;5050603;28;20256;-52
2022/12/20 11:19:22;;;;;;;48.03;37.47;;;6.50;99.90;;;;;;5050922;28;20636;-52
2022/12/20 11:21:58;;;;;;;773.53;138.40;;;6.50;99.90;;;;;;5050078;28;20869;-53
2022/12/20 11:24:33;;;;;;;64.83;47.30;;;6.40;99.90;;;;;;5050320;28;20236;-52
2022/12/20 11:27:16;;;;;;;142.07;62.20;;;6.40;99.90;;;;;;5051114;28;20296;-52
2022/12/20 11:30:15;;;;;;;194.33;86.47;;;6.40;99.90;;;;;;5050828;28;20212;-53
2022/12/20 11:33:03;;;;;;;139.70;51.97;;;6.50;99.90;;;;;;5049312;28;20256;-53
2022/12/20 11:35:43;;;;;;;67.73;41.60;;;6.50;99.90;;;;;;5050808;28;20292;-51
2022/12/20 11:38:21;;;;;;;534.53;208.37;;;6.50;99.90;;;;;;5048284;28;20207;-52
2022/12/20 11:40:55;;;;;;;161.37;87.73;;;6.40;99.90;;;;;;5050464;28;20694;-52
2022/12/20 11:43:35;;;;;;;38.63;32.77;;;6.40;99.90;;;;;;5049904;28;20305;-52
2022/12/20 11:46:36;;;;;;;45.07;36.87;;;6.50;99.90;;;;;;5050273;28;20220;-51
2022/12/20 11:49:19;;;;;;;525.53;188.67;;;6.60;99.90;;;;;;5049751;28;20286;-51
2022/12/20 11:51:48;;;;;;;328.97;107.73;;;6.60;99.90;;;;;;5048644;28;20275;-53
2022/12/20 11:54:25;;;;;;;200.63;77.67;;;6.60;99.90;;;;;;5049485;28;20284;-50
2022/12/20 11:57:01;;;;;;;195.97;65.67;;;6.60;99.90;;;;;;5050030;28;20232;-51
2022/12/20 11:59:35;;;;;;;266.70;67.83;;;6.60;99.90;;;;;;5049506;28;20293;-53
2022/12/20 12:02:10;;;;;;;292.43;108.30;;;6.60;99.90;;;;;;5047862;28;20252;-52
2022/12/20 12:04:43;;;;;;;229.13;66.87;;;6.60;99.90;;;;;;5043459;28;20208;-52
2022/12/20 12:07:16;;;;;;;339.50;118.00;;;6.60;99.90;;;;;;5049662;28;20205;-52
2022/12/20 12:09:54;;;;;;;360.20;87.00;;;6.60;99.90;;;;;;5049272;28;20233;-51
2022/12/20 12:12:26;;;;;;;108.30;76.63;;;6.60;99.90;;;;;;5049316;28;20235;-52
2022/12/20 12:15:01;;;;;;;38.93;35.03;;;6.60;99.90;;;;;;5047340;28;20205;-51
2022/12/20 12:17:38;;;;;;;124.83;62.47;;;6.60;99.90;;;;;;5050200;28;20231;-50
2022/12/20 12:20:31;;;;;;;116.13;62.83;;;6.70;99.90;;;;;;5048516;28;20237;-53
2022/12/20 12:23:05;;;;;;;579.40;138.10;;;6.70;99.90;;;;;;5048955;28;20309;-53
2022/12/20 12:25:33;;;;;;;43.63;32.27;;;6.70;99.90;;;;;;5049648;28;20251;-51
2022/12/20 12:28:02;;;;;;;45.80;33.20;;;6.70;99.90;;;;;;5049389;28;20233;-51
2022/12/20 12:30:38;;;;;;;162.20;73.27;;;6.70;99.90;;;;;;5039766;28;20339;-52
2022/12/20 12:33:14;;;;;;;50.90;31.90;;;6.70;99.90;;;;;;5045988;28;20232;-52
2022/12/20 12:36:22;;;;;;;274.57;82.33;;;6.70;99.90;;;;;;5049397;28;20211;-53
2022/12/20 12:39:08;;;;;;;187.73;69.33;;;6.70;99.90;;;;;;5048879;28;20976;-53
2022/12/20 12:42:09;;;;;;;39.80;29.63;;;6.70;99.90;;;;;;5047023;28;20312;-52
2022/12/20 12:44:43;;;;;;;126.27;51.00;;;6.60;99.90;;;;;;5048606;28;20214;-52
2022/12/20 12:47:17;;;;;;;68.97;42.97;;;6.60;99.90;;;;;;5049390;28;20208;-53
2022/12/20 12:49:49;;;;;;;218.40;81.63;;;6.60;99.90;;;;;;5048873;28;20657;-53
2022/12/20 12:52:40;;;;;;;44.67;35.63;;;6.70;99.90;;;;;;5048380;28;20228;-53
2022/12/20 12:55:40;;;;;;;99.43;50.80;;;6.70;99.90;;;;;;5045812;28;20210;-52
2022/12/20 12:58:38;;;;;;;114.00;55.37;;;6.70;99.90;;;;;;5046965;28;20225;-52
2022/12/20 13:01:56;;;;;;;38.50;27.53;;;6.80;99.90;;;;;;5039289;28;20206;-52
2022/12/20 13:04:28;;;;;;;83.20;45.73;;;6.80;99.90;;;;;;5036572;28;20213;-52
2022/12/20 13:07:02;;;;;;;51.77;39.83;;;6.80;99.90;;;;;;5048540;28;20281;-52